createdAt,value
2018-03-16T00:00:12.608Z,0
2018-03-16T00:00:53.151Z,0
2018-03-16T00:01:33.707Z,0
2018-03-16T00:02:14.274Z,0
2018-03-16T00:02:54.856Z,0
2018-03-16T00:03:35.365Z,0
2018-03-16T00:04:15.908Z,0
2018-03-16T00:04:56.451Z,0
2018-03-16T00:05:37.041Z,0
2018-03-16T00:06:17.675Z,0
2018-03-16T00:06:58.153Z,0
2018-03-16T00:07:38.694Z,0
2018-03-16T00:08:19.348Z,0
2018-03-16T00:08:59.970Z,0
2018-03-16T00:09:40.481Z,0
2018-03-16T00:10:21.098Z,0
2018-03-16T00:11:01.640Z,0
2018-03-16T00:11:42.235Z,0
2018-03-16T00:12:22.751Z,0
2018-03-16T00:13:03.290Z,0
2018-03-16T00:13:43.886Z,0
2018-03-16T00:14:24.437Z,0
2018-03-16T00:15:04.974Z,0
2018-03-16T00:15:45.541Z,0
2018-03-16T00:16:26.119Z,0
2018-03-16T00:17:06.696Z,0
2018-03-16T00:17:47.260Z,0
2018-03-16T00:18:27.820Z,0
2018-03-16T00:19:08.428Z,0
2018-03-16T00:19:49.043Z,0
2018-03-16T00:20:29.673Z,0
2018-03-16T00:21:10.188Z,0
2018-03-16T00:21:50.728Z,0
2018-03-16T00:22:31.304Z,0
2018-03-16T00:23:11.899Z,0
2018-03-16T00:23:52.453Z,0
2018-03-16T00:24:33.010Z,0
2018-03-16T00:25:13.611Z,0
2018-03-16T00:25:54.142Z,0
2018-03-16T00:26:34.678Z,0
2018-03-16T00:27:15.277Z,0
2018-03-16T00:27:55.885Z,0
2018-03-16T00:28:36.444Z,0
2018-03-16T00:29:16.995Z,0
2018-03-16T00:29:57.553Z,0
2018-03-16T00:30:38.102Z,0
2018-03-16T00:31:18.681Z,0
2018-03-16T00:31:59.249Z,0
2018-03-16T00:32:39.796Z,0
2018-03-16T00:33:20.374Z,0
2018-03-16T00:34:01.019Z,0
2018-03-16T00:34:41.569Z,0
2018-03-16T00:35:22.114Z,0
2018-03-16T00:36:02.699Z,0
2018-03-16T00:36:43.252Z,0
2018-03-16T00:37:23.818Z,0
2018-03-16T00:38:04.364Z,0
2018-03-16T00:38:44.993Z,0
2018-03-16T00:39:25.557Z,0
2018-03-16T00:40:06.094Z,0
2018-03-16T00:40:46.657Z,0
2018-03-16T00:41:27.257Z,0
2018-03-16T00:42:07.794Z,0
2018-03-16T00:42:48.364Z,0
2018-03-16T00:43:28.905Z,0
2018-03-16T00:44:09.444Z,0
2018-03-16T00:44:50.004Z,0
2018-03-16T00:45:30.537Z,0
2018-03-16T00:46:11.127Z,0
2018-03-16T00:46:51.711Z,0
2018-03-16T00:47:32.241Z,0
2018-03-16T00:48:12.816Z,0
2018-03-16T00:48:53.393Z,0
2018-03-16T00:49:33.933Z,0
2018-03-16T00:50:14.508Z,0
2018-03-16T00:50:55.033Z,0
2018-03-16T00:51:35.609Z,0
2018-03-16T00:52:16.194Z,0
2018-03-16T00:52:56.828Z,0
2018-03-16T00:53:37.380Z,0
2018-03-16T00:54:17.941Z,0
2018-03-16T00:54:58.557Z,0
2018-03-16T00:55:39.087Z,0
2018-03-16T00:56:19.632Z,0
2018-03-16T00:57:00.199Z,0
2018-03-16T00:57:40.737Z,0
2018-03-16T00:58:21.302Z,0
2018-03-16T00:59:01.850Z,0
2018-03-16T00:59:42.382Z,0
2018-03-16T01:00:22.979Z,0
2018-03-16T01:01:03.514Z,0
2018-03-16T01:01:44.073Z,0
2018-03-16T01:02:24.838Z,0
2018-03-16T01:03:05.378Z,0
2018-03-16T01:03:45.908Z,0
2018-03-16T01:04:26.465Z,0
2018-03-16T01:05:07.079Z,0
2018-03-16T01:05:47.643Z,0
2018-03-16T01:06:28.222Z,0
2018-03-16T01:07:08.939Z,0
2018-03-16T01:07:49.499Z,0
2018-03-16T01:08:30.065Z,0
2018-03-16T01:09:10.623Z,0
2018-03-16T01:09:51.184Z,0
2018-03-16T01:10:31.726Z,0
2018-03-16T01:11:12.295Z,0
2018-03-16T01:11:52.850Z,0
2018-03-16T01:12:33.416Z,0
2018-03-16T01:13:14.000Z,0
2018-03-16T01:13:54.553Z,0
2018-03-16T01:14:35.117Z,0
2018-03-16T01:15:15.671Z,0
2018-03-16T01:15:56.205Z,0
2018-03-16T01:16:36.778Z,0
2018-03-16T01:17:17.359Z,0
2018-03-16T01:17:57.920Z,0
2018-03-16T01:18:38.476Z,0
2018-03-16T01:19:19.027Z,0
2018-03-16T01:19:59.604Z,0
2018-03-16T01:20:40.191Z,0
2018-03-16T01:21:20.730Z,0
2018-03-16T01:22:01.284Z,0
2018-03-16T01:22:41.824Z,0
2018-03-16T01:23:22.372Z,0
2018-03-16T01:24:02.942Z,0
2018-03-16T01:24:43.499Z,0
2018-03-16T01:25:24.087Z,0
2018-03-16T01:26:04.672Z,0
2018-03-16T01:26:45.222Z,0
2018-03-16T01:27:25.760Z,0
2018-03-16T01:28:06.312Z,0
2018-03-16T01:28:46.878Z,0
2018-03-16T01:29:27.421Z,0
2018-03-16T01:30:07.971Z,0
2018-03-16T01:30:48.529Z,0
2018-03-16T01:31:29.115Z,0
2018-03-16T01:32:09.640Z,0
2018-03-16T01:32:50.261Z,0
2018-03-16T01:33:30.730Z,0
2018-03-16T01:34:11.280Z,0
2018-03-16T01:34:51.833Z,0
2018-03-16T01:35:32.383Z,0
2018-03-16T01:36:12.935Z,0
2018-03-16T01:36:53.518Z,0
2018-03-16T01:37:34.072Z,0
2018-03-16T01:38:14.611Z,0
2018-03-16T01:38:55.160Z,0
2018-03-16T01:39:35.699Z,0
2018-03-16T01:40:16.249Z,0
2018-03-16T01:40:56.786Z,0
2018-03-16T01:41:37.337Z,0
2018-03-16T01:42:17.899Z,0
2018-03-16T01:42:58.440Z,0
2018-03-16T01:43:38.989Z,0
2018-03-16T01:44:19.546Z,0
2018-03-16T01:45:00.516Z,0
2018-03-16T01:45:40.846Z,0
2018-03-16T01:46:21.417Z,0
2018-03-16T01:47:01.946Z,0
2018-03-16T01:47:42.538Z,0
2018-03-16T01:48:23.062Z,0
2018-03-16T01:49:03.625Z,0
2018-03-16T01:49:44.222Z,0
2018-03-16T01:50:24.784Z,0
2018-03-16T01:51:05.404Z,0
2018-03-16T01:51:45.929Z,0
2018-03-16T01:52:26.487Z,0
2018-03-16T01:53:07.053Z,0
2018-03-16T01:53:47.621Z,0
2018-03-16T01:54:28.178Z,0
2018-03-16T01:55:08.721Z,0
2018-03-16T01:55:49.302Z,0
2018-03-16T01:56:29.887Z,0
2018-03-16T01:57:10.444Z,0
2018-03-16T01:57:51.033Z,0
2018-03-16T01:58:31.596Z,0
2018-03-16T01:59:12.193Z,0
2018-03-16T01:59:52.735Z,0
2018-03-16T02:00:33.355Z,0
2018-03-16T02:01:13.914Z,0
2018-03-16T02:01:54.471Z,0
2018-03-16T02:02:35.027Z,0
2018-03-16T02:03:15.578Z,0
2018-03-16T02:03:56.173Z,0
2018-03-16T02:04:36.735Z,0
2018-03-16T02:05:17.300Z,0
2018-03-16T02:05:57.868Z,0
2018-03-16T02:06:38.420Z,0
2018-03-16T02:07:18.983Z,0
2018-03-16T02:07:59.586Z,0
2018-03-16T02:08:40.225Z,0
2018-03-16T02:09:20.784Z,0
2018-03-16T02:10:01.344Z,0
2018-03-16T02:10:41.903Z,0
2018-03-16T02:11:22.492Z,0
2018-03-16T02:12:03.064Z,0
2018-03-16T02:12:43.611Z,0
2018-03-16T02:13:24.167Z,0
2018-03-16T02:14:04.737Z,0
2018-03-16T02:14:45.293Z,0
2018-03-16T02:15:25.855Z,0
2018-03-16T02:16:06.433Z,0
2018-03-16T02:16:47.017Z,0
2018-03-16T02:17:27.580Z,0
2018-03-16T02:18:08.143Z,0
2018-03-16T02:18:48.722Z,0
2018-03-16T02:19:29.293Z,0
2018-03-16T02:20:09.859Z,0
2018-03-16T02:20:50.405Z,0
2018-03-16T02:21:30.954Z,0
2018-03-16T02:22:11.508Z,0
2018-03-16T02:22:52.064Z,0
2018-03-16T02:23:32.653Z,0
2018-03-16T02:24:13.210Z,0
2018-03-16T02:24:53.799Z,0
2018-03-16T02:25:34.355Z,0
2018-03-16T02:26:14.937Z,0
2018-03-16T02:26:55.496Z,0
2018-03-16T02:27:36.070Z,0
2018-03-16T02:28:16.627Z,0
2018-03-16T02:28:57.183Z,0
2018-03-16T02:29:37.759Z,0
2018-03-16T02:30:18.314Z,0
2018-03-16T02:30:58.879Z,0
2018-03-16T02:31:39.442Z,0
2018-03-16T02:32:19.995Z,0
2018-03-16T02:33:00.558Z,0
2018-03-16T02:33:41.105Z,0
2018-03-16T02:34:21.673Z,0
2018-03-16T02:35:02.267Z,0
2018-03-16T02:35:42.779Z,0
2018-03-16T02:36:23.343Z,0
2018-03-16T02:37:03.905Z,0
2018-03-16T02:37:44.469Z,0
2018-03-16T02:38:25.057Z,0
2018-03-16T02:39:05.624Z,0
2018-03-16T02:39:46.188Z,0
2018-03-16T02:40:26.737Z,0
2018-03-16T02:41:07.285Z,0
2018-03-16T02:41:47.846Z,0
2018-03-16T02:42:28.412Z,0
2018-03-16T02:43:08.966Z,0
2018-03-16T02:43:49.536Z,0
2018-03-16T02:44:30.096Z,0
2018-03-16T02:45:10.636Z,0
2018-03-16T02:45:51.194Z,0
2018-03-16T02:46:31.757Z,0
2018-03-16T02:47:12.334Z,0
2018-03-16T02:47:52.889Z,0
2018-03-16T02:48:33.438Z,0
2018-03-16T02:49:13.993Z,0
2018-03-16T02:49:54.544Z,0
2018-03-16T02:50:35.108Z,0
2018-03-16T02:51:15.666Z,0
2018-03-16T02:51:56.245Z,0
2018-03-16T02:52:36.803Z,0
2018-03-16T02:53:17.361Z,0
2018-03-16T02:53:57.907Z,0
2018-03-16T02:54:38.460Z,0
2018-03-16T02:55:19.010Z,0
2018-03-16T02:55:59.568Z,0
2018-03-16T02:56:40.124Z,0
2018-03-16T02:57:20.701Z,0
2018-03-16T02:58:01.268Z,0
2018-03-16T02:58:41.839Z,0
2018-03-16T02:59:22.408Z,0
2018-03-16T03:00:02.966Z,0
2018-03-16T03:00:43.527Z,0
2018-03-16T03:01:24.071Z,0
2018-03-16T03:02:04.644Z,0
2018-03-16T03:02:45.213Z,0
2018-03-16T03:03:25.769Z,0
2018-03-16T03:04:06.330Z,0
2018-03-16T03:04:46.886Z,0
2018-03-16T03:05:27.441Z,0
2018-03-16T03:06:07.995Z,0
2018-03-16T03:06:48.610Z,0
2018-03-16T03:07:29.134Z,0
2018-03-16T03:08:09.676Z,0
2018-03-16T03:08:50.228Z,0
2018-03-16T03:09:30.799Z,0
2018-03-16T03:10:11.362Z,0
2018-03-16T03:10:51.936Z,0
2018-03-16T03:11:32.489Z,0
2018-03-16T03:12:13.052Z,0
2018-03-16T03:12:53.619Z,0
2018-03-16T03:13:34.349Z,0
2018-03-16T03:14:14.917Z,0
2018-03-16T03:14:55.492Z,0
2018-03-16T03:15:36.032Z,0
2018-03-16T03:16:16.580Z,0
2018-03-16T03:16:57.129Z,0
2018-03-16T03:17:37.690Z,0
2018-03-16T03:18:18.246Z,0
2018-03-16T03:18:58.806Z,0
2018-03-16T03:19:39.411Z,0
2018-03-16T03:20:19.982Z,0
2018-03-16T03:21:00.542Z,0
2018-03-16T03:21:41.104Z,0
2018-03-16T03:22:21.652Z,0
2018-03-16T03:23:02.226Z,0
2018-03-16T03:23:42.796Z,0
2018-03-16T03:24:23.350Z,0
2018-03-16T03:25:03.911Z,0
2018-03-16T03:25:44.460Z,0
2018-03-16T03:26:25.023Z,0
2018-03-16T03:27:05.575Z,0
2018-03-16T03:27:46.137Z,0
2018-03-16T03:28:26.690Z,0
2018-03-16T03:29:07.245Z,0
2018-03-16T03:29:47.804Z,0
2018-03-16T03:30:28.356Z,0
2018-03-16T03:31:08.937Z,0
2018-03-16T03:31:49.494Z,0
2018-03-16T03:32:30.056Z,0
2018-03-16T03:33:10.614Z,0
2018-03-16T03:33:51.182Z,0
2018-03-16T03:34:31.739Z,0
2018-03-16T03:35:12.294Z,0
2018-03-16T03:35:52.894Z,0
2018-03-16T03:36:33.464Z,0
2018-03-16T03:37:14.025Z,0
2018-03-16T03:37:54.592Z,0
2018-03-16T03:38:35.147Z,0
2018-03-16T03:39:15.713Z,0
2018-03-16T03:39:56.264Z,0
2018-03-16T03:40:36.828Z,0
2018-03-16T03:41:17.400Z,0
2018-03-16T03:41:57.966Z,0
2018-03-16T03:42:38.560Z,0
2018-03-16T03:43:19.108Z,0
2018-03-16T03:43:59.665Z,0
2018-03-16T03:44:40.225Z,0
2018-03-16T03:45:20.783Z,0
2018-03-16T03:46:01.346Z,0
2018-03-16T03:46:41.901Z,0
2018-03-16T03:47:22.461Z,0
2018-03-16T03:48:03.014Z,0
2018-03-16T03:48:43.563Z,0
2018-03-16T03:49:24.116Z,0
2018-03-16T03:50:04.683Z,0
2018-03-16T03:50:45.260Z,0
2018-03-16T03:51:25.809Z,0
2018-03-16T03:52:06.361Z,0
2018-03-16T03:52:46.910Z,0
2018-03-16T03:53:27.460Z,0
2018-03-16T03:54:08.029Z,0
2018-03-16T03:54:48.588Z,0
2018-03-16T03:55:29.137Z,0
2018-03-16T03:56:09.685Z,0
2018-03-16T03:56:50.242Z,0
2018-03-16T03:57:30.820Z,0
2018-03-16T03:58:11.427Z,0
2018-03-16T03:58:51.973Z,0
2018-03-16T03:59:32.534Z,0
2018-03-16T04:00:13.091Z,0
2018-03-16T04:00:53.645Z,0
2018-03-16T04:01:34.194Z,0
2018-03-16T04:02:14.764Z,0
2018-03-16T04:02:55.317Z,0
2018-03-16T04:03:35.895Z,0
2018-03-16T04:04:16.480Z,0
2018-03-16T04:04:57.052Z,0
2018-03-16T04:05:37.606Z,0
2018-03-16T04:06:18.167Z,0
2018-03-16T04:06:58.740Z,0
2018-03-16T04:07:39.280Z,0
2018-03-16T04:08:19.838Z,0
2018-03-16T04:09:00.394Z,0
2018-03-16T04:09:40.977Z,0
2018-03-16T04:10:21.558Z,0
2018-03-16T04:11:02.107Z,0
2018-03-16T04:11:42.675Z,0
2018-03-16T04:12:23.249Z,0
2018-03-16T04:13:03.799Z,0
2018-03-16T04:13:44.351Z,0
2018-03-16T04:14:24.913Z,0
2018-03-16T04:15:05.474Z,0
2018-03-16T04:15:46.025Z,0
2018-03-16T04:16:26.599Z,0
2018-03-16T04:17:07.162Z,0
2018-03-16T04:17:47.719Z,0
2018-03-16T04:18:28.275Z,0
2018-03-16T04:19:08.829Z,0
2018-03-16T04:19:49.386Z,0
2018-03-16T04:20:29.929Z,0
2018-03-16T04:21:10.482Z,0
2018-03-16T04:21:51.053Z,0
2018-03-16T04:22:31.606Z,0
2018-03-16T04:23:12.158Z,0
2018-03-16T04:23:52.721Z,0
2018-03-16T04:24:33.269Z,0
2018-03-16T04:25:13.839Z,0
2018-03-16T04:25:54.402Z,0
2018-03-16T04:26:34.947Z,0
2018-03-16T04:27:15.512Z,0
2018-03-16T04:27:56.067Z,0
2018-03-16T04:28:36.622Z,0
2018-03-16T04:29:17.189Z,0
2018-03-16T04:29:57.746Z,0
2018-03-16T04:30:38.305Z,0
2018-03-16T04:31:18.871Z,0
2018-03-16T04:31:59.441Z,0
2018-03-16T04:32:39.987Z,0
2018-03-16T04:33:20.545Z,0
2018-03-16T04:34:01.097Z,0
2018-03-16T04:34:41.650Z,0
2018-03-16T04:35:22.202Z,0
2018-03-16T04:36:02.747Z,0
2018-03-16T04:36:43.295Z,0
2018-03-16T04:37:23.867Z,0
2018-03-16T04:38:04.421Z,0
2018-03-16T04:38:45.021Z,0
2018-03-16T04:39:25.571Z,0
2018-03-16T04:40:06.132Z,0
2018-03-16T04:40:46.719Z,0
2018-03-16T04:41:27.302Z,0
2018-03-16T04:42:07.856Z,0
2018-03-16T04:42:48.420Z,0
2018-03-16T04:43:28.973Z,0
2018-03-16T04:44:09.543Z,0
2018-03-16T04:44:50.119Z,0
2018-03-16T04:45:30.685Z,0
2018-03-16T04:46:11.249Z,0
2018-03-16T04:46:51.786Z,0
2018-03-16T04:47:32.357Z,0
2018-03-16T04:48:12.957Z,0
2018-03-16T04:48:53.518Z,0
2018-03-16T04:49:34.065Z,0
2018-03-16T04:50:14.617Z,0
2018-03-16T04:50:55.183Z,0
2018-03-16T04:51:35.730Z,0
2018-03-16T04:52:16.296Z,0
2018-03-16T04:52:56.871Z,0
2018-03-16T04:53:37.440Z,0
2018-03-16T04:54:17.983Z,0
2018-03-16T04:54:58.530Z,0
2018-03-16T04:55:39.089Z,0
2018-03-16T04:56:19.637Z,0
2018-03-16T04:57:00.184Z,0
2018-03-16T04:57:40.878Z,0
2018-03-16T04:58:21.434Z,0
2018-03-16T04:59:01.995Z,0
2018-03-16T04:59:42.574Z,0
2018-03-16T05:00:23.123Z,0
2018-03-16T05:01:03.675Z,0
2018-03-16T05:01:44.263Z,0
2018-03-16T05:02:24.815Z,4
2018-03-16T05:03:05.395Z,4
2018-03-16T05:03:45.959Z,4
2018-03-16T05:04:26.517Z,0
2018-03-16T05:05:07.082Z,4
2018-03-16T05:05:47.678Z,4
2018-03-16T05:06:28.213Z,4
2018-03-16T05:07:08.777Z,0
2018-03-16T05:07:49.341Z,4
2018-03-16T05:08:29.897Z,4
2018-03-16T05:09:10.455Z,4
2018-03-16T05:09:51.040Z,4
2018-03-16T05:10:31.611Z,4
2018-03-16T05:11:12.174Z,4
2018-03-16T05:11:52.747Z,8
2018-03-16T05:12:33.294Z,8
2018-03-16T05:13:13.896Z,4
2018-03-16T05:13:54.444Z,4
2018-03-16T05:14:35.034Z,8
2018-03-16T05:15:15.602Z,8
2018-03-16T05:15:56.168Z,8
2018-03-16T05:16:36.764Z,12
2018-03-16T05:17:17.321Z,12
2018-03-16T05:17:57.872Z,8
2018-03-16T05:18:38.430Z,12
2018-03-16T05:19:18.980Z,16
2018-03-16T05:19:59.531Z,16
2018-03-16T05:20:40.074Z,16
2018-03-16T05:21:20.665Z,16
2018-03-16T05:22:01.226Z,16
2018-03-16T05:22:41.812Z,20
2018-03-16T05:23:22.391Z,20
2018-03-16T05:24:02.982Z,20
2018-03-16T05:24:43.510Z,24
2018-03-16T05:25:24.106Z,24
2018-03-16T05:26:04.648Z,24
2018-03-16T05:26:45.226Z,24
2018-03-16T05:27:25.780Z,24
2018-03-16T05:28:06.360Z,24
2018-03-16T05:28:46.913Z,24
2018-03-16T05:29:27.490Z,32
2018-03-16T05:30:08.055Z,32
2018-03-16T05:30:48.612Z,36
2018-03-16T05:31:29.180Z,32
2018-03-16T05:32:09.756Z,36
2018-03-16T05:32:50.324Z,36
2018-03-16T05:33:30.871Z,40
2018-03-16T05:34:11.432Z,36
2018-03-16T05:34:51.990Z,40
2018-03-16T05:35:32.553Z,44
2018-03-16T05:36:13.088Z,40
2018-03-16T05:36:53.644Z,44
2018-03-16T05:37:34.241Z,44
2018-03-16T05:38:14.802Z,44
2018-03-16T05:38:55.349Z,48
2018-03-16T05:39:35.917Z,48
2018-03-16T05:40:16.471Z,48
2018-03-16T05:40:57.030Z,48
2018-03-16T05:41:37.589Z,52
2018-03-16T05:42:18.136Z,52
2018-03-16T05:42:58.697Z,56
2018-03-16T05:43:39.233Z,56
2018-03-16T05:44:19.798Z,60
2018-03-16T05:45:00.360Z,60
2018-03-16T05:45:40.917Z,72
2018-03-16T05:46:21.517Z,68
2018-03-16T05:47:02.113Z,72
2018-03-16T05:47:42.659Z,76
2018-03-16T05:48:23.207Z,72
2018-03-16T05:49:03.808Z,72
2018-03-16T05:49:44.335Z,76
2018-03-16T05:50:24.952Z,76
2018-03-16T05:51:05.495Z,72
2018-03-16T05:51:46.061Z,72
2018-03-16T05:52:26.661Z,72
2018-03-16T05:53:07.457Z,72
2018-03-16T05:53:48.017Z,72
2018-03-16T05:54:28.887Z,76
2018-03-16T05:55:09.445Z,72
2018-03-16T05:55:50.023Z,76
2018-03-16T05:56:30.574Z,80
2018-03-16T05:57:11.129Z,80
2018-03-16T05:57:51.713Z,84
2018-03-16T05:58:32.521Z,80
2018-03-16T05:59:13.079Z,84
2018-03-16T05:59:53.649Z,88
2018-03-16T06:00:34.470Z,88
2018-03-16T06:01:15.057Z,84
2018-03-16T06:01:55.608Z,92
2018-03-16T06:02:36.168Z,96
2018-03-16T06:03:16.847Z,96
2018-03-16T06:03:57.399Z,100
2018-03-16T06:04:37.977Z,100
2018-03-16T06:05:18.534Z,108
2018-03-16T06:05:59.088Z,108
2018-03-16T06:06:39.644Z,108
2018-03-16T06:07:20.224Z,108
2018-03-16T06:08:00.810Z,112
2018-03-16T06:08:41.666Z,116
2018-03-16T06:09:22.196Z,116
2018-03-16T06:10:02.753Z,124
2018-03-16T06:10:43.397Z,120
2018-03-16T06:11:36.444Z,132
2018-03-16T06:12:24.538Z,136
2018-03-16T06:13:05.127Z,140
2018-03-16T06:13:45.685Z,156
2018-03-16T06:14:26.232Z,168
2018-03-16T06:15:07.013Z,164
2018-03-16T06:15:50.140Z,172
2018-03-16T06:16:29.219Z,172
2018-03-16T06:17:09.835Z,180
2018-03-16T06:17:50.378Z,184
2018-03-16T06:18:30.951Z,192
2018-03-16T06:19:11.563Z,196
2018-03-16T06:19:52.117Z,200
2018-03-16T06:20:32.678Z,200
2018-03-16T06:21:13.233Z,188
2018-03-16T06:21:53.793Z,192
2018-03-16T06:22:34.346Z,196
2018-03-16T06:23:14.895Z,200
2018-03-16T06:23:55.447Z,196
2018-03-16T06:24:36.003Z,212
2018-03-16T06:25:16.560Z,216
2018-03-16T06:25:57.151Z,212
2018-03-16T06:26:37.701Z,212
2018-03-16T06:27:18.263Z,212
2018-03-16T06:27:58.848Z,212
2018-03-16T06:28:39.393Z,224
2018-03-16T06:29:20.043Z,228
2018-03-16T06:30:00.596Z,224
2018-03-16T06:30:41.171Z,224
2018-03-16T06:31:21.731Z,228
2018-03-16T06:32:02.357Z,220
2018-03-16T06:32:42.946Z,236
2018-03-16T06:33:23.518Z,232
2018-03-16T06:34:04.195Z,244
2018-03-16T06:34:44.771Z,248
2018-03-16T06:35:25.317Z,252
2018-03-16T06:36:05.866Z,264
2018-03-16T06:36:46.476Z,252
2018-03-16T06:37:27.046Z,252
2018-03-16T06:38:07.598Z,268
2018-03-16T06:38:48.161Z,272
2018-03-16T06:39:28.731Z,260
2018-03-16T06:40:09.277Z,264
2018-03-16T06:40:49.965Z,268
2018-03-16T06:41:30.526Z,280
2018-03-16T06:42:11.066Z,280
2018-03-16T06:42:51.639Z,308
2018-03-16T06:43:32.197Z,320
2018-03-16T06:44:12.772Z,312
2018-03-16T06:44:53.549Z,316
2018-03-16T06:45:34.040Z,320
2018-03-16T06:46:14.664Z,320
2018-03-16T06:46:55.413Z,312
2018-03-16T06:47:35.995Z,316
2018-03-16T06:48:16.578Z,296
2018-03-16T06:48:57.969Z,300
2018-03-16T06:49:38.577Z,320
2018-03-16T06:50:19.341Z,324
2018-03-16T06:51:00.024Z,332
2018-03-16T06:51:40.657Z,328
2018-03-16T06:52:22.267Z,332
2018-03-16T06:53:02.875Z,320
2018-03-16T06:53:43.599Z,332
2018-03-16T06:54:24.222Z,340
2018-03-16T06:55:04.821Z,332
2018-03-16T06:55:45.403Z,324
2018-03-16T06:56:25.960Z,328
2018-03-16T06:57:06.558Z,316
2018-03-16T06:57:47.200Z,328
2018-03-16T06:58:27.853Z,336
2018-03-16T06:59:08.524Z,352
2018-03-16T06:59:49.114Z,332
2018-03-16T07:00:29.939Z,324
2018-03-16T07:01:10.599Z,332
2018-03-16T07:01:51.275Z,316
2018-03-16T07:02:31.924Z,304
2018-03-16T07:03:12.572Z,324
2018-03-16T07:03:53.315Z,352
2018-03-16T07:04:33.865Z,364
2018-03-16T07:05:14.569Z,384
2018-03-16T07:05:55.154Z,368
2018-03-16T07:06:35.731Z,376
2018-03-16T07:07:16.304Z,400
2018-03-16T07:07:56.891Z,404
2018-03-16T07:08:37.567Z,412
2018-03-16T07:09:18.111Z,404
2018-03-16T07:09:58.684Z,404
2018-03-16T07:10:39.241Z,408
2018-03-16T07:11:19.822Z,416
2018-03-16T07:12:00.387Z,424
2018-03-16T07:12:40.952Z,424
2018-03-16T07:13:21.488Z,432
2018-03-16T07:14:02.090Z,440
2018-03-16T07:14:42.654Z,444
2018-03-16T07:15:23.231Z,468
2018-03-16T07:16:03.780Z,480
2018-03-16T07:16:44.351Z,468
2018-03-16T07:17:24.888Z,468
2018-03-16T07:18:05.445Z,456
2018-03-16T07:18:45.993Z,468
2018-03-16T07:19:26.558Z,460
2018-03-16T07:20:07.119Z,460
2018-03-16T07:20:47.692Z,448
2018-03-16T07:21:28.289Z,448
2018-03-16T07:22:08.844Z,440
2018-03-16T07:22:49.400Z,444
2018-03-16T07:23:29.993Z,440
2018-03-16T07:24:10.556Z,440
2018-03-16T07:24:51.156Z,432
2018-03-16T07:25:31.718Z,452
2018-03-16T07:26:12.313Z,452
2018-03-16T07:26:52.900Z,448
2018-03-16T07:27:33.458Z,448
2018-03-16T07:28:14.052Z,452
2018-03-16T07:28:54.565Z,460
2018-03-16T07:32:55.781Z,468
2018-03-16T07:33:36.401Z,464
2018-03-16T07:34:16.918Z,464
2018-03-16T07:34:57.492Z,472
2018-03-16T07:35:38.021Z,476
2018-03-16T07:36:18.666Z,488
2018-03-16T07:36:59.296Z,508
2018-03-16T07:37:39.856Z,528
2018-03-16T07:38:21.123Z,536
2018-03-16T07:39:01.733Z,556
2018-03-16T07:39:42.308Z,564
2018-03-16T07:40:22.878Z,584
2018-03-16T07:41:03.390Z,596
2018-03-16T07:41:43.929Z,604
2018-03-16T07:42:24.473Z,612
2018-03-16T07:43:05.031Z,624
2018-03-16T07:43:45.605Z,632
2018-03-16T07:44:26.184Z,644
2018-03-16T07:45:06.774Z,636
2018-03-16T07:45:47.356Z,640
2018-03-16T07:46:27.900Z,652
2018-03-16T07:47:08.490Z,652
2018-03-16T07:47:49.049Z,660
2018-03-16T07:48:29.602Z,664
2018-03-16T07:49:10.190Z,668
2018-03-16T07:49:50.742Z,680
2018-03-16T07:50:31.300Z,680
2018-03-16T07:51:11.867Z,696
2018-03-16T07:51:52.395Z,716
2018-03-16T07:52:32.950Z,720
2018-03-16T07:53:13.519Z,728
2018-03-16T07:53:54.044Z,740
2018-03-16T07:54:34.604Z,764
2018-03-16T07:55:15.235Z,776
2018-03-16T07:55:55.767Z,776
2018-03-16T07:56:36.319Z,744
2018-03-16T07:57:16.874Z,752
2018-03-16T07:57:57.470Z,756
2018-03-16T07:58:38.020Z,756
2018-03-16T07:59:18.584Z,752
2018-03-16T07:59:59.150Z,736
2018-03-16T08:00:39.705Z,728
2018-03-16T08:01:20.994Z,716
2018-03-16T08:02:01.515Z,724
2018-03-16T08:02:42.070Z,728
2018-03-16T08:03:22.623Z,732
2018-03-16T08:04:03.166Z,744
2018-03-16T08:04:43.747Z,776
2018-03-16T08:05:24.297Z,804
2018-03-16T08:06:04.831Z,840
2018-03-16T08:06:45.372Z,864
2018-03-16T08:07:25.970Z,884
2018-03-16T08:08:06.459Z,912
2018-03-16T08:08:47.045Z,972
2018-03-16T08:09:27.578Z,992
2018-03-16T08:10:08.140Z,1012
2018-03-16T08:10:49.453Z,1024
2018-03-16T08:11:30.188Z,1020
2018-03-16T08:12:10.739Z,1048
2018-03-16T08:12:51.325Z,1060
2018-03-16T08:13:31.909Z,1056
2018-03-16T08:14:12.451Z,1076
2018-03-16T08:14:53.006Z,1108
2018-03-16T08:15:33.552Z,1124
2018-03-16T08:16:14.210Z,1136
2018-03-16T08:16:54.793Z,1148
2018-03-16T08:17:35.325Z,1108
2018-03-16T08:18:15.880Z,1128
2018-03-16T08:18:56.470Z,1152
2018-03-16T08:19:36.983Z,1144
2018-03-16T08:20:17.535Z,1120
2018-03-16T08:20:58.115Z,1096
2018-03-16T08:21:38.713Z,1060
2018-03-16T08:22:19.266Z,1048
2018-03-16T08:22:59.814Z,1036
2018-03-16T08:23:40.414Z,1048
2018-03-16T08:24:20.913Z,1040
2018-03-16T08:25:01.539Z,1040
2018-03-16T08:25:42.189Z,1044
2018-03-16T08:26:22.759Z,1040
2018-03-16T08:27:03.328Z,1060
2018-03-16T08:27:44.181Z,1064
2018-03-16T08:28:24.756Z,1060
2018-03-16T08:29:05.307Z,1068
2018-03-16T08:29:45.912Z,1060
2018-03-16T08:30:26.442Z,1076
2018-03-16T08:31:07.069Z,1072
2018-03-16T08:31:47.640Z,1064
2018-03-16T08:32:28.210Z,1052
2018-03-16T08:33:08.778Z,1024
2018-03-16T08:33:49.337Z,1024
2018-03-16T08:34:29.899Z,1000
2018-03-16T08:35:10.502Z,984
2018-03-16T08:35:51.042Z,980
2018-03-16T08:36:31.652Z,972
2018-03-16T08:37:12.208Z,972
2018-03-16T08:37:52.758Z,952
2018-03-16T08:38:33.305Z,940
2018-03-16T08:39:13.870Z,936
2018-03-16T08:39:54.423Z,924
2018-03-16T08:40:34.969Z,908
2018-03-16T08:41:15.563Z,892
2018-03-16T08:41:56.135Z,884
2018-03-16T08:42:36.686Z,884
2018-03-16T08:43:17.245Z,852
2018-03-16T08:43:57.820Z,844
2018-03-16T08:44:38.367Z,856
2018-03-16T08:45:18.920Z,852
2018-03-16T08:45:59.546Z,856
2018-03-16T08:46:40.016Z,852
2018-03-16T08:47:20.565Z,856
2018-03-16T08:48:01.114Z,860
2018-03-16T08:48:41.689Z,868
2018-03-16T08:49:22.242Z,880
2018-03-16T08:50:02.804Z,888
2018-03-16T08:50:43.342Z,900
2018-03-16T08:51:23.927Z,888
2018-03-16T08:52:04.464Z,872
2018-03-16T08:52:45.029Z,884
2018-03-16T08:53:25.605Z,900
2018-03-16T08:54:06.171Z,904
2018-03-16T08:54:46.705Z,900
2018-03-16T08:55:27.248Z,884
2018-03-16T08:56:07.835Z,912
2018-03-16T08:56:48.377Z,908
2018-03-16T08:57:28.930Z,920
2018-03-16T08:58:09.462Z,928
2018-03-16T08:58:50.020Z,924
2018-03-16T08:59:30.578Z,912
2018-03-16T09:00:11.138Z,900
2018-03-16T09:00:51.683Z,908
2018-03-16T09:01:32.239Z,904
2018-03-16T09:02:12.788Z,904
2018-03-16T09:02:53.397Z,892
2018-03-16T09:03:33.895Z,888
2018-03-16T09:04:14.427Z,876
2018-03-16T09:04:54.979Z,880
2018-03-16T09:05:35.528Z,896
2018-03-16T09:06:16.095Z,888
2018-03-16T09:06:56.682Z,928
2018-03-16T09:07:37.206Z,976
2018-03-16T09:08:17.765Z,956
2018-03-16T09:08:58.330Z,964
2018-03-16T09:09:38.875Z,968
2018-03-16T09:10:19.463Z,984
2018-03-16T09:10:59.960Z,992
2018-03-16T09:11:40.532Z,992
2018-03-16T09:12:21.097Z,1020
2018-03-16T09:13:01.662Z,1044
2018-03-16T09:13:42.199Z,1052
2018-03-16T09:14:22.767Z,1068
2018-03-16T09:15:03.352Z,1076
2018-03-16T09:15:43.900Z,1088
2018-03-16T09:16:24.513Z,1096
2018-03-16T09:17:05.050Z,1096
2018-03-16T09:17:45.602Z,1112
2018-03-16T09:18:26.161Z,1128
2018-03-16T09:19:06.745Z,1128
2018-03-16T09:19:47.296Z,1148
2018-03-16T09:20:27.864Z,1160
2018-03-16T09:21:08.657Z,1180
2018-03-16T09:21:49.245Z,1196
2018-03-16T09:22:29.784Z,1220
2018-03-16T09:23:10.356Z,1220
2018-03-16T09:23:50.915Z,1224
2018-03-16T09:24:31.531Z,1220
2018-03-16T09:25:12.066Z,1208
2018-03-16T09:25:52.612Z,1184
2018-03-16T09:26:33.202Z,1156
2018-03-16T09:27:13.773Z,1172
2018-03-16T09:27:54.334Z,1164
2018-03-16T09:28:34.893Z,1152
2018-03-16T09:29:15.459Z,1152
2018-03-16T09:29:55.985Z,1140
2018-03-16T09:30:36.547Z,1144
2018-03-16T09:31:17.094Z,1128
2018-03-16T09:31:57.636Z,1160
2018-03-16T09:32:38.195Z,1144
2018-03-16T09:33:18.770Z,1156
2018-03-16T09:33:59.320Z,1156
2018-03-16T09:34:39.874Z,1160
2018-03-16T09:35:20.473Z,1148
2018-03-16T09:36:01.014Z,1144
2018-03-16T09:36:41.556Z,1152
2018-03-16T09:37:22.144Z,1152
2018-03-16T09:38:02.690Z,1152
2018-03-16T09:38:43.240Z,1172
2018-03-16T09:39:23.792Z,1196
2018-03-16T09:40:04.352Z,1204
2018-03-16T09:40:44.918Z,1200
2018-03-16T09:41:25.468Z,1224
2018-03-16T09:42:06.018Z,1232
2018-03-16T09:42:46.626Z,1224
2018-03-16T09:43:27.182Z,1208